createdAt,value
2018-11-05T00:00:41.135Z,95787.83
2018-11-05T00:03:12.507Z,95792.32
2018-11-05T00:05:41.355Z,95790.19
2018-11-05T00:08:11.651Z,95786.45
2018-11-05T00:10:40.500Z,95793.06
2018-11-05T00:13:09.653Z,95790.03
2018-11-05T00:15:40.398Z,95789.97
2018-11-05T00:18:10.722Z,95784.97
2018-11-05T00:20:44.878Z,95777.02
2018-11-05T00:23:14.575Z,95780.34
2018-11-05T00:25:43.422Z,95775.24
2018-11-05T00:28:13.662Z,95767.75
2018-11-05T00:30:48.131Z,95771.11
2018-11-05T00:33:16.983Z,95778.41
2018-11-05T00:35:45.826Z,95774.05
2018-11-05T00:38:14.765Z,95766.85
2018-11-05T00:40:47.225Z,95761.84
2018-11-05T00:43:16.673Z,95763.33
2018-11-05T00:45:45.649Z,95766.69
2018-11-05T00:48:14.409Z,95774.86
2018-11-05T00:50:45.370Z,95777.08
2018-11-05T00:53:14.238Z,95778.95
2018-11-05T00:55:44.357Z,95773.81
2018-11-05T00:58:16.946Z,95770.00
2018-11-05T01:00:45.845Z,95767.88
2018-11-05T01:03:14.655Z,95768.45
2018-11-05T01:05:43.770Z,95764.09
2018-11-05T01:08:12.615Z,95766.73
2018-11-05T01:10:41.445Z,95763.95
2018-11-05T01:13:10.274Z,95758.33
2018-11-05T01:15:39.518Z,95770.47
2018-11-05T01:18:08.347Z,95765.76
2018-11-05T01:20:39.522Z,95759.88
2018-11-05T01:23:11.129Z,95762.59
2018-11-05T01:25:39.968Z,95763.44
2018-11-05T01:28:10.473Z,95759.95
2018-11-05T01:30:39.821Z,95768.70
2018-11-05T01:33:10.393Z,95772.59
2018-11-05T01:35:40.372Z,95770.11
2018-11-05T01:38:09.202Z,95770.91
2018-11-05T01:40:38.018Z,95763.49
2018-11-05T01:43:07.799Z,95756.25
2018-11-05T01:45:37.818Z,95754.41
2018-11-05T01:48:06.803Z,95754.23
2018-11-05T01:50:35.689Z,95741.80
2018-11-05T01:53:04.545Z,95743.64
2018-11-05T01:55:33.735Z,95744.12
2018-11-05T01:58:02.579Z,95740.16
2018-11-05T02:00:31.418Z,95735.53
2018-11-05T02:03:00.230Z,95740.53
2018-11-05T02:05:29.346Z,95730.17
2018-11-05T02:07:58.155Z,95732.48
2018-11-05T02:10:27.174Z,95738.33
2018-11-05T02:12:55.898Z,95734.05
2018-11-05T02:15:24.729Z,95728.98
2018-11-05T02:17:54.890Z,95730.99
2018-11-05T02:20:24.069Z,95721.45
2018-11-05T02:22:53.814Z,95718.22
2018-11-05T02:25:22.687Z,95714.70
2018-11-05T02:28:01.338Z,95714.53
2018-11-05T02:30:30.162Z,95708.05
2018-11-05T02:32:58.974Z,95704.42
2018-11-05T02:35:27.820Z,95703.78
2018-11-05T02:37:57.509Z,95700.26
2018-11-05T02:40:27.785Z,95694.17
2018-11-05T02:42:59.456Z,95690.09
2018-11-05T02:45:28.269Z,95689.16
2018-11-05T02:47:57.870Z,95685.27
2018-11-05T02:50:26.760Z,95679.03
2018-11-05T02:52:55.565Z,95679.03
2018-11-05T02:55:26.427Z,95676.98
2018-11-05T02:57:55.293Z,95682.76
2018-11-05T03:00:24.480Z,95687.03
2018-11-05T03:02:54.769Z,95688.20
2018-11-05T03:05:23.590Z,95677.70
2018-11-05T03:07:52.854Z,95679.09
2018-11-05T03:10:21.750Z,95679.48
2018-11-05T03:12:50.607Z,95669.99
2018-11-05T03:15:19.949Z,95670.25
2018-11-05T03:17:49.239Z,95664.02
2018-11-05T03:20:18.101Z,95664.47
2018-11-05T03:22:46.962Z,95662.75
2018-11-05T03:25:15.831Z,95662.47
2018-11-05T03:27:45.008Z,95671.83
2018-11-05T03:30:16.101Z,95666.37
2018-11-05T03:32:45.839Z,95656.75
2018-11-05T03:35:15.133Z,95653.23
2018-11-05T03:37:45.335Z,95664.83
2018-11-05T03:40:14.502Z,95664.98
2018-11-05T03:42:44.317Z,95669.19
2018-11-05T03:45:14.372Z,95669.31
2018-11-05T03:47:43.478Z,95665.79
2018-11-05T03:50:14.616Z,95671.72
2018-11-05T03:52:44.135Z,95675.79
2018-11-05T03:55:13.360Z,95681.38
2018-11-05T03:57:42.234Z,95673.34
2018-11-05T04:00:13.245Z,95683.58
2018-11-05T04:02:42.482Z,95677.92
2018-11-05T04:05:11.318Z,95674.02
2018-11-05T04:07:40.344Z,95665.57
2018-11-05T04:10:16.643Z,95663.05
2018-11-05T04:13:49.267Z,95654.84
2018-11-05T04:16:18.190Z,95657.34
2018-11-05T04:18:47.003Z,95660.80
2018-11-05T04:21:16.288Z,95659.91
2018-11-05T04:23:45.150Z,95666.08
2018-11-05T04:26:14.068Z,95657.91
2018-11-05T04:28:42.927Z,95663.13
2018-11-05T04:31:13.555Z,95660.48
2018-11-05T04:33:42.434Z,95661.53
2018-11-05T04:36:11.285Z,95667.08
2018-11-05T04:38:41.590Z,95676.38
2018-11-05T04:41:10.434Z,95673.52
2018-11-05T04:43:39.250Z,95670.88
2018-11-05T04:46:08.094Z,95672.97
2018-11-05T04:48:38.290Z,95668.65
2018-11-05T04:51:07.176Z,95669.08
2018-11-05T04:53:36.087Z,95666.14
2018-11-05T04:56:04.947Z,95666.37
2018-11-05T04:58:34.187Z,95655.72
2018-11-05T05:01:06.131Z,95650.19
2018-11-05T05:03:35.080Z,95645.70
2018-11-05T05:06:04.002Z,95633.80
2018-11-05T05:08:32.941Z,95636.02
2018-11-05T05:11:01.859Z,95627.78
2018-11-05T05:13:31.220Z,95633.36
2018-11-05T05:16:00.086Z,95625.65
2018-11-05T05:18:28.997Z,95628.48
2018-11-05T05:20:58.719Z,95625.69
2018-11-05T05:23:27.587Z,95629.05
2018-11-05T05:25:57.342Z,95640.02
2018-11-05T05:28:27.387Z,95639.22
2018-11-05T05:30:58.243Z,95635.39
2018-11-05T05:33:28.221Z,95627.59
2018-11-05T05:35:57.134Z,95631.56
2018-11-05T05:38:25.983Z,95631.84
2018-11-05T05:40:54.929Z,95623.93
2018-11-05T05:43:23.752Z,95618.63
2018-11-05T05:45:53.076Z,95619.21
2018-11-05T05:48:22.645Z,95632.61
2018-11-05T05:50:51.487Z,95631.08
2018-11-05T05:53:21.213Z,95634.83
2018-11-05T05:55:50.228Z,95628.89
2018-11-05T05:58:19.044Z,95626.27
2018-11-05T06:00:47.881Z,95633.17
2018-11-05T06:03:16.702Z,95638.28
2018-11-05T06:05:45.543Z,95637.48
2018-11-05T06:08:14.375Z,95641.50
2018-11-05T06:10:43.209Z,95639.95
2018-11-05T06:13:12.054Z,95626.03
2018-11-05T06:15:41.339Z,95634.11
2018-11-05T06:18:10.158Z,95643.09
2018-11-05T06:20:39.205Z,95647.17
2018-11-05T06:23:08.082Z,95639.22
2018-11-05T06:25:37.769Z,95643.48
2018-11-05T06:28:07.311Z,95646.48
2018-11-05T06:30:37.460Z,95650.64
2018-11-05T06:33:06.432Z,95639.59
2018-11-05T06:35:35.925Z,95640.52
2018-11-05T06:38:07.933Z,95644.50
2018-11-05T06:40:38.717Z,95647.42
2018-11-05T06:43:07.595Z,95645.65
2018-11-05T06:45:37.147Z,95651.36
2018-11-05T06:48:07.702Z,95652.00
2018-11-05T06:50:39.433Z,95661.91
2018-11-05T06:53:08.304Z,95649.73
2018-11-05T06:55:37.502Z,95651.42
2018-11-05T06:58:06.369Z,95645.52
2018-11-05T07:00:35.180Z,95648.00
2018-11-05T07:03:05.275Z,95643.09
2018-11-05T07:05:34.229Z,95640.87
2018-11-05T07:08:03.123Z,95637.09
2018-11-05T07:10:32.316Z,95641.48
2018-11-05T07:13:01.528Z,95643.38
2018-11-05T07:15:30.409Z,95640.21
2018-11-05T07:17:59.331Z,95645.04
2018-11-05T07:20:29.825Z,95649.16
2018-11-05T07:23:01.380Z,95655.31
2018-11-05T07:25:30.364Z,95648.48
2018-11-05T07:27:59.566Z,95646.81
2018-11-05T07:30:29.310Z,95655.11
2018-11-05T07:32:58.179Z,95654.94
2018-11-05T07:35:27.218Z,95659.06
2018-11-05T07:37:59.281Z,95651.55
2018-11-05T07:40:28.188Z,95650.45
2018-11-05T07:42:57.079Z,95635.63
2018-11-05T07:45:26.342Z,95643.70
2018-11-05T07:47:55.231Z,95650.30
2018-11-05T07:50:27.063Z,95653.70
2018-11-05T07:52:56.268Z,95654.75
2018-11-05T07:55:25.387Z,95659.33
2018-11-05T07:57:55.166Z,95658.00
2018-11-05T08:00:30.274Z,95650.41
2018-11-05T08:02:59.378Z,95661.13
2018-11-05T08:05:28.109Z,95653.62
2018-11-05T08:07:59.124Z,95653.94
2018-11-05T08:10:28.069Z,95653.94
2018-11-05T08:13:08.161Z,95655.55
2018-11-05T08:15:37.114Z,95651.05
2018-11-05T08:18:06.151Z,95652.16
2018-11-05T08:20:37.403Z,95647.14
2018-11-05T08:23:07.822Z,95638.91
2018-11-05T08:25:37.702Z,95637.66
2018-11-05T08:28:08.482Z,95629.95
2018-11-05T08:30:40.544Z,95628.71
2018-11-05T08:33:11.602Z,95624.73
2018-11-05T08:35:45.399Z,95624.48
2018-11-05T08:38:15.703Z,95632.23
2018-11-05T08:40:45.447Z,95636.78
2018-11-05T08:43:14.379Z,95634.38
2018-11-05T08:45:47.419Z,95632.26
2018-11-05T08:48:16.587Z,95636.27
2018-11-05T08:50:45.837Z,95632.84
2018-11-05T08:53:15.998Z,95632.83
2018-11-05T08:55:44.822Z,95634.72
2018-11-05T08:58:14.443Z,95635.52
2018-11-05T09:00:48.881Z,95633.11
2018-11-05T09:03:19.643Z,95624.30
2018-11-05T09:05:48.489Z,95631.53
2018-11-05T09:08:26.088Z,95617.09
2018-11-05T09:10:55.444Z,95622.98
2018-11-05T09:13:24.682Z,95625.11
2018-11-05T09:15:56.770Z,95619.48
2018-11-05T09:18:25.730Z,95620.81
2018-11-05T09:20:57.625Z,95617.59
2018-11-05T09:23:33.089Z,95621.31
2018-11-05T09:26:03.566Z,95618.62
2018-11-05T09:28:32.895Z,95612.20
2018-11-05T09:31:01.781Z,95612.17
2018-11-05T09:33:34.931Z,95607.06
2018-11-05T09:36:03.806Z,95608.85
2018-11-05T09:38:42.221Z,95614.42
2018-11-05T09:41:11.475Z,95610.89
2018-11-05T09:43:41.190Z,95606.78
2018-11-05T09:46:13.452Z,95607.51
2018-11-05T09:48:42.304Z,95603.37
2018-11-05T09:51:11.176Z,95594.19
2018-11-05T09:53:40.342Z,95588.23
2018-11-05T09:56:09.904Z,95585.97
2018-11-05T09:58:45.206Z,95588.84
2018-11-05T10:01:17.942Z,95586.80
2018-11-05T10:03:53.369Z,95579.48
2018-11-05T10:06:25.201Z,95575.82
2018-11-05T10:08:54.714Z,95578.28
2018-11-05T10:11:26.311Z,95576.39
2018-11-05T10:13:56.931Z,95567.61
2018-11-05T10:16:27.847Z,95576.82
2018-11-05T10:18:57.491Z,95565.19
2018-11-05T10:21:28.329Z,95559.27
2018-11-05T10:24:06.006Z,95563.47
2018-11-05T10:26:36.782Z,95575.75
2018-11-05T10:29:08.723Z,95588.73
2018-11-05T10:31:38.195Z,95588.66
2018-11-05T10:34:07.328Z,95583.02
2018-11-05T10:36:37.269Z,95577.11
2018-11-05T10:39:08.351Z,95583.39
2018-11-05T10:41:37.227Z,95596.77
2018-11-05T10:44:06.324Z,95592.52
2018-11-05T10:46:58.838Z,95574.97
2018-11-05T10:49:30.698Z,95574.27
2018-11-05T10:52:00.118Z,95571.72
2018-11-05T10:54:29.855Z,95592.17
2018-11-05T10:56:58.741Z,95587.83
2018-11-05T10:59:30.775Z,95580.40
2018-11-05T11:02:04.602Z,95568.91
2018-11-05T11:04:34.840Z,95563.42
2018-11-05T11:07:05.871Z,95565.06
2018-11-05T11:09:37.005Z,95548.91
2018-11-05T11:12:06.275Z,95548.53
2018-11-05T11:14:35.211Z,95545.09
2018-11-05T11:17:04.422Z,95547.12
2018-11-05T11:19:33.242Z,95551.17
2018-11-05T11:22:02.410Z,95549.73
2018-11-05T11:24:32.558Z,95557.27
2018-11-05T11:27:03.170Z,95561.65
2018-11-05T11:29:32.707Z,95550.20
2018-11-05T11:32:01.727Z,95551.00
2018-11-05T11:34:31.006Z,95558.73
2018-11-05T11:36:59.897Z,95548.12
2018-11-05T11:39:28.731Z,95541.28
2018-11-05T11:41:59.303Z,95516.70
2018-11-05T11:44:28.367Z,95527.87
2018-11-05T11:47:08.712Z,95526.78
2018-11-05T11:49:42.378Z,95524.19
2018-11-05T11:52:11.770Z,95521.88
2018-11-05T11:54:42.526Z,95517.81
2018-11-05T11:57:13.484Z,95523.97
2018-11-05T11:59:43.381Z,95522.55
2018-11-05T12:02:14.580Z,95521.50
2018-11-05T12:04:45.211Z,95526.51
2018-11-05T12:07:17.824Z,95517.08
2018-11-05T12:09:47.380Z,95520.41
2018-11-05T12:12:18.145Z,95509.88
2018-11-05T12:14:48.341Z,95507.11
2018-11-05T12:17:17.111Z,95504.31
2018-11-05T12:19:47.256Z,95511.25
2018-11-05T12:22:16.112Z,95507.83
2018-11-05T12:24:44.976Z,95508.45
2018-11-05T12:27:13.816Z,95505.63
2018-11-05T12:29:45.688Z,95501.42
2018-11-05T12:32:15.026Z,95498.59
2018-11-05T12:34:43.798Z,95495.30
2018-11-05T12:37:16.512Z,95500.85
2018-11-05T12:39:47.558Z,95500.94
2018-11-05T12:42:19.086Z,95507.84
2018-11-05T12:44:49.107Z,95493.26
2018-11-05T12:47:17.961Z,95505.94
2018-11-05T12:49:47.223Z,95497.06
2018-11-05T12:52:16.099Z,95500.44
2018-11-05T12:54:45.056Z,95493.34
2018-11-05T12:57:13.911Z,95491.80
2018-11-05T12:59:45.403Z,95487.39
2018-11-05T13:02:14.298Z,95480.31
2018-11-05T13:04:43.158Z,95486.89
2018-11-05T13:07:12.122Z,95487.73
2018-11-05T13:09:40.920Z,95490.78
2018-11-05T13:12:12.759Z,95490.91
2018-11-05T13:14:41.625Z,95480.87
2018-11-05T13:17:10.915Z,95486.98
2018-11-05T13:19:39.728Z,95487.08
2018-11-05T13:22:09.705Z,95485.31
2018-11-05T13:24:38.788Z,95480.52
2018-11-05T13:27:08.562Z,95483.55
2018-11-05T13:29:38.043Z,95484.98
2018-11-05T13:32:10.851Z,95477.84
2018-11-05T13:34:42.986Z,95480.53
2018-11-05T13:37:12.843Z,95476.04
2018-11-05T13:39:41.579Z,95483.11
2018-11-05T13:42:13.256Z,95477.30
2018-11-05T13:44:42.499Z,95476.05
2018-11-05T13:47:13.469Z,95475.32
2018-11-05T13:49:43.453Z,95466.11
2018-11-05T13:52:13.040Z,95471.40
2018-11-05T13:54:42.464Z,95466.10
2018-11-05T13:57:13.854Z,95463.56
2018-11-05T13:59:42.723Z,95462.92
2018-11-05T14:02:11.591Z,95457.08
2018-11-05T14:04:43.625Z,95456.39
2018-11-05T14:07:28.631Z,95463.48
2018-11-05T14:10:12.162Z,95467.08
2018-11-05T14:12:41.503Z,95471.99
2018-11-05T14:15:11.723Z,95469.16
2018-11-05T14:17:44.350Z,95469.34
2018-11-05T14:20:14.804Z,95462.47
2018-11-05T14:22:44.688Z,95471.69
2018-11-05T14:25:16.255Z,95476.88
2018-11-05T14:27:46.492Z,95478.80
2018-11-05T14:30:16.796Z,95466.00
2018-11-05T14:32:48.664Z,95461.72
2018-11-05T14:35:18.546Z,95466.69
2018-11-05T14:37:49.570Z,95461.12
2018-11-05T14:40:19.182Z,95456.35
2018-11-05T14:42:49.479Z,95462.88
2018-11-05T14:45:21.644Z,95457.89
2018-11-05T14:47:53.768Z,95449.38
2018-11-05T14:50:24.343Z,95463.38
2018-11-05T14:52:54.867Z,95464.44
2018-11-05T14:55:23.786Z,95454.41
2018-11-05T14:57:55.438Z,95453.83
2018-11-05T15:00:28.178Z,95449.99
2018-11-05T15:02:59.396Z,95444.59
2018-11-05T15:05:28.404Z,95442.19
2018-11-05T15:07:59.272Z,95452.45
2018-11-05T15:10:34.694Z,95459.23
2018-11-05T15:13:03.620Z,95457.89
2018-11-05T15:15:39.997Z,95445.55
2018-11-05T15:18:10.615Z,95452.84
2018-11-05T15:20:40.123Z,95457.18
2018-11-05T15:23:09.007Z,95445.36
2018-11-05T15:25:40.545Z,95442.98
2018-11-05T15:28:11.091Z,95454.24
2018-11-05T15:30:41.369Z,95448.91
2018-11-05T15:33:11.350Z,95443.53
2018-11-05T15:35:41.127Z,95439.79
2018-11-05T15:38:10.343Z,95435.86
2018-11-05T15:40:41.576Z,95436.11
2018-11-05T15:43:12.559Z,95432.91
2018-11-05T15:45:41.491Z,95431.16
2018-11-05T15:48:11.155Z,95428.78
2018-11-05T15:50:44.440Z,95435.52
2018-11-05T15:53:15.183Z,95425.77
2018-11-05T15:55:44.415Z,95419.40
2018-11-05T15:58:14.327Z,95420.63
2018-11-05T16:00:43.323Z,95428.65
2018-11-05T16:03:12.304Z,95433.52
2018-11-05T16:05:42.189Z,95427.10
2018-11-05T16:08:19.760Z,95420.48
2018-11-05T16:10:48.624Z,95421.64
2018-11-05T16:13:19.282Z,95423.30
2018-11-05T16:15:49.483Z,95423.38
2018-11-05T16:18:18.357Z,95424.45
2018-11-05T16:20:47.255Z,95417.27
2018-11-05T16:23:17.181Z,95411.38
2018-11-05T16:25:49.264Z,95411.38
2018-11-05T16:28:18.237Z,95408.96
2018-11-05T16:30:47.390Z,95404.89
2018-11-05T16:33:17.348Z,95402.20
2018-11-05T16:35:47.112Z,95403.95
2018-11-05T16:38:17.480Z,95408.36
2018-11-05T16:40:48.047Z,95407.63
2018-11-05T16:43:16.964Z,95404.70
2018-11-05T16:45:49.415Z,95409.27
2018-11-05T16:48:20.522Z,95400.80
2018-11-05T16:50:51.681Z,95406.72
2018-11-05T16:53:24.066Z,95406.73
2018-11-05T16:55:54.653Z,95408.30
2018-11-05T16:58:25.266Z,95404.25
2018-11-05T17:00:54.561Z,95394.91
2018-11-05T17:03:24.519Z,95389.02
2018-11-05T17:05:57.177Z,95387.39
2018-11-05T17:08:29.204Z,95394.52
2018-11-05T17:10:58.626Z,95394.28
2018-11-05T17:13:28.337Z,95399.38
2018-11-05T17:16:12.319Z,95398.58
2018-11-05T17:18:41.451Z,95398.37
2018-11-05T17:21:12.087Z,95395.16
2018-11-05T17:23:41.920Z,95384.69
2018-11-05T17:26:13.713Z,95390.63
2018-11-05T17:28:44.370Z,95391.16
2018-11-05T17:31:15.134Z,95391.44
2018-11-05T17:33:47.043Z,95392.00
2018-11-05T17:36:55.815Z,95395.27
2018-11-05T17:39:26.675Z,95394.75
2018-11-05T17:42:01.642Z,95389.63
2018-11-05T17:50:05.555Z,95394.61
2018-11-05T17:52:34.856Z,95391.77
2018-11-05T17:55:07.441Z,95392.05
2018-11-05T17:57:36.434Z,95396.80
2018-11-05T18:00:08.411Z,95400.52
2018-11-05T18:02:41.731Z,95395.09
2018-11-05T18:05:32.315Z,95400.17
2018-11-05T18:08:48.496Z,95396.44
2018-11-05T18:11:18.639Z,95391.44
2018-11-05T18:13:49.286Z,95404.31
2018-11-05T18:16:18.986Z,95395.73
2018-11-05T18:18:48.752Z,95388.59
2018-11-05T18:21:24.176Z,95387.79
2018-11-05T18:23:57.443Z,95389.41
2018-11-05T18:26:26.287Z,95392.35
2018-11-05T18:28:55.415Z,95392.89
2018-11-05T18:31:24.257Z,95394.48
2018-11-05T18:33:54.429Z,95395.64
2018-11-05T18:36:23.810Z,95387.06
2018-11-05T18:38:55.364Z,95390.28
2018-11-05T18:41:25.318Z,95393.24
2018-11-05T18:43:55.826Z,95385.48
2018-11-05T18:46:24.682Z,95386.83
2018-11-05T18:48:56.629Z,95382.20
2018-11-05T18:51:30.349Z,95386.17
2018-11-05T18:54:00.754Z,95385.39
2018-11-05T18:56:31.787Z,95382.71
2018-11-05T18:59:05.504Z,95384.38
2018-11-05T19:01:37.374Z,95379.84
2018-11-05T19:04:07.056Z,95379.33
2018-11-05T19:06:36.899Z,95376.39
2018-11-05T19:09:08.316Z,95380.64
2018-11-05T19:11:37.147Z,95376.61
2018-11-05T19:14:09.143Z,95375.83
2018-11-05T19:16:42.361Z,95374.91
2018-11-05T19:19:14.082Z,95371.97
2018-11-05T19:21:45.232Z,95371.17
2018-11-05T19:24:14.903Z,95376.84
2018-11-05T19:26:45.403Z,95363.67
2018-11-05T19:29:14.815Z,95367.93
2018-11-05T19:31:44.370Z,95379.47
2018-11-05T19:34:15.272Z,95376.23
2018-11-05T19:36:48.050Z,95377.31
2018-11-05T19:39:23.788Z,95381.33
2018-11-05T19:41:53.957Z,95378.11
2018-11-05T19:44:24.427Z,95378.65
2018-11-05T19:46:55.433Z,95379.19
2018-11-05T19:49:28.114Z,95382.86
2018-11-05T19:51:57.179Z,95378.91
2018-11-05T19:54:27.830Z,95372.23
2018-11-05T19:56:57.920Z,95375.99
2018-11-05T19:59:26.754Z,95380.81
2018-11-05T20:01:58.437Z,95378.86
2018-11-05T20:04:31.815Z,95384.48
2018-11-05T20:07:04.264Z,95381.25
2018-11-05T20:09:35.233Z,95380.41
2018-11-05T20:12:04.349Z,95375.31
2018-11-05T20:14:37.427Z,95383.94
2018-11-05T20:17:08.544Z,95390.47
2018-11-05T20:20:40.470Z,95388.89
2018-11-05T20:23:12.219Z,95386.75
2018-11-05T20:25:41.795Z,95390.84
2018-11-05T20:28:12.426Z,95394.34
2018-11-05T20:30:41.756Z,95394.34
2018-11-05T20:33:15.372Z,95393.80
2018-11-05T20:35:52.505Z,95397.80
2018-11-05T20:38:25.322Z,95394.06
2018-11-05T20:40:55.546Z,95403.45
2018-11-05T20:43:25.105Z,95411.77
2018-11-05T20:45:54.625Z,95407.75
2018-11-05T20:48:25.855Z,95421.45
2018-11-05T20:50:56.522Z,95428.19
2018-11-05T20:53:29.017Z,95420.94
2018-11-05T20:55:59.278Z,95427.66
2018-11-05T20:58:29.206Z,95422.83
2018-11-05T21:00:58.561Z,95433.88
2018-11-05T21:03:27.420Z,95434.41
2018-11-05T21:05:56.781Z,95437.09
2018-11-05T21:08:41.223Z,95435.95
2018-11-05T21:13:51.525Z,95432.55
2018-11-05T21:16:25.854Z,95432.29
2018-11-05T21:18:56.362Z,95431.23
2018-11-05T21:21:28.606Z,95420.80
2018-11-05T21:23:57.392Z,95421.86
2018-11-05T21:26:27.374Z,95432.64
2018-11-05T21:28:57.016Z,95431.05
2018-11-05T21:31:26.444Z,95427.86
2018-11-05T21:36:35.159Z,95422.05
2018-11-05T21:39:05.083Z,95433.56
2018-11-05T21:41:38.040Z,95435.16
2018-11-05T21:44:10.523Z,95439.23
2018-11-05T21:46:40.355Z,95434.36
2018-11-05T21:49:17.228Z,95426.67
2018-11-05T21:51:47.189Z,95432.84
2018-11-05T21:54:21.674Z,95431.55
2018-11-05T21:56:51.258Z,95428.86
2018-11-05T21:59:21.334Z,95430.20
2018-11-05T22:01:53.418Z,95440.38
2018-11-05T22:04:23.352Z,95432.31
2018-11-05T22:06:54.693Z,95425.16
2018-11-05T22:09:26.270Z,95432.62
2018-11-05T22:11:57.862Z,95431.05
2018-11-05T22:14:27.267Z,95428.42
2018-11-05T22:17:04.060Z,95427.30
2018-11-05T22:19:34.213Z,95428.42
2018-11-05T22:22:07.003Z,95430.05
2018-11-05T22:24:47.494Z,95425.20
2018-11-05T22:27:20.644Z,95432.38
2018-11-05T22:29:50.422Z,95429.41
2018-11-05T22:32:22.249Z,95435.87
2018-11-05T22:34:51.171Z,95437.53
2018-11-05T22:37:20.756Z,95445.02
2018-11-05T22:39:49.519Z,95431.38
2018-11-05T22:42:19.207Z,95435.17
2018-11-05T22:44:48.371Z,95435.66
2018-11-05T22:47:18.251Z,95432.45
2018-11-05T22:49:48.627Z,95428.95
2018-11-05T22:52:17.771Z,95434.06
2018-11-05T22:54:51.388Z,95433.25
2018-11-05T22:57:20.731Z,95445.08
2018-11-05T22:59:50.561Z,95437.33
2018-11-05T23:02:37.267Z,95438.66
2018-11-05T23:05:07.142Z,95437.85
2018-11-05T23:07:37.121Z,95434.64
2018-11-05T23:10:06.047Z,95437.88
2018-11-05T23:12:35.009Z,95439.76
2018-11-05T23:15:04.366Z,95439.14
2018-11-05T23:17:34.113Z,95436.67
2018-11-05T23:20:02.934Z,95442.33
2018-11-05T23:22:31.774Z,95439.69
2018-11-05T23:25:01.533Z,95446.69
2018-11-05T23:27:30.461Z,95440.48
2018-11-05T23:29:59.428Z,95443.44
2018-11-05T23:32:28.363Z,95449.85
2018-11-05T23:34:58.349Z,95455.48
2018-11-05T23:37:27.582Z,95453.12
2018-11-05T23:39:57.746Z,95449.39
2018-11-05T23:42:28.727Z,95467.05
2018-11-05T23:44:57.535Z,95455.00
2018-11-05T23:47:28.419Z,95444.88
2018-11-05T23:49:57.987Z,95458.48
2018-11-05T23:52:27.261Z,95450.44
2018-11-05T23:54:56.111Z,95453.13
2018-11-05T23:57:25.582Z,95452.65
2018-11-05T23:59:54.442Z,95445.96
